createdAt,value
2024-01-07T00:01:36.558Z,96111.94
2024-01-07T00:04:04.805Z,96106.69
2024-01-07T00:06:34.052Z,96117.44
2024-01-07T00:09:02.072Z,96111.66
2024-01-07T00:11:29.954Z,96105.86
2024-01-07T00:13:58.990Z,96107.05
2024-01-07T00:16:27.749Z,96100.25
2024-01-07T00:18:56.616Z,96102.44
2024-01-07T00:21:25.770Z,96103.88
2024-01-07T00:23:54.194Z,96113.30
2024-01-07T00:26:24.056Z,96116.52
2024-01-07T00:28:52.083Z,96112.30
2024-01-07T00:31:21.550Z,96106.71
2024-01-07T00:33:49.861Z,96106.97
2024-01-07T00:36:19.449Z,96117.77
2024-01-07T00:38:47.592Z,96109.58
2024-01-07T00:41:15.448Z,96107.05
2024-01-07T00:43:43.362Z,96111.96
2024-01-07T00:46:11.447Z,96113.77
2024-01-07T00:48:39.733Z,96107.11
2024-01-07T00:51:07.636Z,96100.52
2024-01-07T00:53:35.481Z,96099.69
2024-01-07T00:56:04.910Z,96098.30
2024-01-07T00:58:37.214Z,96099.69
2024-01-07T01:01:07.063Z,96095.19
2024-01-07T01:03:35.332Z,96094.65
2024-01-07T01:06:03.589Z,96095.95
2024-01-07T01:08:31.750Z,96095.25
2024-01-07T01:11:01.585Z,96088.75
2024-01-07T01:13:30.747Z,96084.83
2024-01-07T01:16:01.028Z,96087.05
2024-01-07T01:18:29.109Z,96083.36
2024-01-07T01:20:57.562Z,96082.14
2024-01-07T01:23:25.512Z,96082.44
2024-01-07T01:25:53.804Z,96076.03
2024-01-07T01:28:23.033Z,96070.23
2024-01-07T01:30:50.871Z,96069.53
2024-01-07T01:33:20.329Z,96076.52
2024-01-07T01:35:49.635Z,96072.05
2024-01-07T01:38:18.126Z,96076.13
2024-01-07T01:40:54.554Z,96072.45
2024-01-07T01:43:26.960Z,96062.21
2024-01-07T01:48:28.848Z,96050.79
2024-01-07T01:50:58.257Z,96051.42
2024-01-07T01:53:27.237Z,96053.08
2024-01-07T01:55:59.209Z,96058.48
2024-01-07T01:58:29.643Z,96060.37
2024-01-07T02:00:58.208Z,96068.73
2024-01-07T02:03:27.694Z,96066.62
2024-01-07T02:06:00.062Z,96066.55
2024-01-07T02:08:28.757Z,96066.06
2024-01-07T02:10:57.640Z,96068.28
2024-01-07T02:13:25.876Z,96061.22
2024-01-07T02:15:54.263Z,96065.88
2024-01-07T02:18:24.532Z,96064.62
2024-01-07T02:20:52.463Z,96055.70
2024-01-07T02:23:20.615Z,96047.09
2024-01-07T02:25:48.565Z,96046.87
2024-01-07T02:28:16.488Z,96044.61
2024-01-07T02:30:46.579Z,96042.33
2024-01-07T02:33:15.246Z,96048.30
2024-01-07T02:35:43.731Z,96048.05
2024-01-07T02:38:11.763Z,96044.94
2024-01-07T02:40:40.265Z,96042.83
2024-01-07T02:43:08.738Z,96025.05
2024-01-07T02:45:36.644Z,96026.68
2024-01-07T02:48:06.059Z,96021.46
2024-01-07T02:50:34.211Z,96018.32
2024-01-07T02:53:02.080Z,96019.20
2024-01-07T02:55:29.999Z,96014.96
2024-01-07T02:57:58.040Z,96014.25
2024-01-07T03:00:26.039Z,96006.93
2024-01-07T03:02:56.236Z,96003.56
2024-01-07T03:05:26.506Z,95996.20
2024-01-07T03:07:54.439Z,96001.67
2024-01-07T03:10:22.420Z,96002.00
2024-01-07T03:12:50.615Z,96000.81
2024-01-07T03:15:19.186Z,96000.92
2024-01-07T03:17:47.247Z,95992.23
2024-01-07T03:20:17.636Z,95994.73
2024-01-07T03:22:45.566Z,95996.69
2024-01-07T03:25:21.140Z,95989.66
2024-01-07T03:27:49.468Z,95981.53
2024-01-07T03:30:17.412Z,95987.47
2024-01-07T03:32:45.284Z,95986.77
2024-01-07T03:35:13.282Z,95987.54
2024-01-07T03:37:41.156Z,95983.87
2024-01-07T03:40:13.011Z,95982.77
2024-01-07T03:42:41.819Z,95977.39
2024-01-07T03:45:10.034Z,95970.02
2024-01-07T03:47:37.914Z,95960.24
2024-01-07T03:50:07.226Z,95962.20
2024-01-07T03:52:36.129Z,95955.38
2024-01-07T03:55:04.721Z,95957.89
2024-01-07T03:57:34.029Z,95961.41
2024-01-07T04:00:01.980Z,95954.25
2024-01-07T04:02:31.638Z,95956.68
2024-01-07T04:04:59.581Z,95955.94
2024-01-07T04:07:29.417Z,95950.69
2024-01-07T04:10:00.399Z,95946.62
2024-01-07T04:12:30.309Z,95945.73
2024-01-07T04:14:58.302Z,95941.44
2024-01-07T04:17:26.574Z,95929.47
2024-01-07T04:19:54.683Z,95924.14
2024-01-07T04:22:22.630Z,95914.50
2024-01-07T04:24:51.154Z,95919.73
2024-01-07T04:27:19.235Z,95923.87
2024-01-07T04:29:47.401Z,95927.23
2024-01-07T04:32:15.494Z,95928.45
2024-01-07T04:34:43.493Z,95931.37
2024-01-07T04:37:12.199Z,95937.25
2024-01-07T04:39:40.418Z,95925.57
2024-01-07T04:42:10.686Z,95931.78
2024-01-07T04:44:37.909Z,95929.12
2024-01-07T04:47:05.915Z,95915.89
2024-01-07T04:49:34.091Z,95915.89
2024-01-07T04:52:02.241Z,95914.56
2024-01-07T04:54:30.125Z,95907.91
2024-01-07T04:56:57.940Z,95913.67
2024-01-07T04:59:26.001Z,95909.30
2024-01-07T05:01:54.092Z,95908.55
2024-01-07T05:04:24.098Z,95910.02
2024-01-07T05:06:52.297Z,95915.18
2024-01-07T05:09:20.303Z,95910.55
2024-01-07T05:11:48.223Z,95912.88
2024-01-07T05:14:16.201Z,95913.02
2024-01-07T05:16:43.916Z,95916.59
2024-01-07T05:19:11.949Z,95912.05
2024-01-07T05:21:39.928Z,95905.86
2024-01-07T05:24:07.891Z,95906.85
2024-01-07T05:26:45.895Z,95902.64
2024-01-07T05:29:14.018Z,95903.33
2024-01-07T05:31:42.073Z,95903.88
2024-01-07T05:34:10.249Z,95903.80
2024-01-07T05:36:38.394Z,95911.12
2024-01-07T05:39:07.281Z,95905.80
2024-01-07T05:41:39.547Z,95906.59
2024-01-07T05:44:09.152Z,95909.48
2024-01-07T05:46:40.977Z,95900.16
2024-01-07T05:49:09.806Z,95902.83
2024-01-07T05:51:42.648Z,95902.48
2024-01-07T05:54:10.717Z,95896.94
2024-01-07T05:56:42.070Z,95890.84
2024-01-07T05:59:10.146Z,95895.61
2024-01-07T06:01:38.227Z,95893.94
2024-01-07T06:04:06.176Z,95890.20
2024-01-07T06:06:35.048Z,95886.64
2024-01-07T06:09:03.164Z,95887.66
2024-01-07T06:11:32.369Z,95904.86
2024-01-07T06:14:00.257Z,95900.56
2024-01-07T06:16:28.165Z,95897.12
2024-01-07T06:18:56.349Z,95894.68
2024-01-07T06:21:24.278Z,95897.34
2024-01-07T06:23:52.102Z,95898.45
2024-01-07T06:26:20.056Z,95897.12
2024-01-07T06:28:47.834Z,95897.43
2024-01-07T06:31:16.094Z,95887.89
2024-01-07T06:33:44.346Z,95897.77
2024-01-07T06:36:12.343Z,95892.99
2024-01-07T06:38:40.329Z,95889.22
2024-01-07T06:41:08.375Z,95887.33
2024-01-07T06:43:36.390Z,95890.68
2024-01-07T06:46:05.068Z,95885.48
2024-01-07T06:48:32.948Z,95878.73
2024-01-07T06:51:01.032Z,95883.86
2024-01-07T06:53:29.129Z,95880.55
2024-01-07T06:55:57.190Z,95883.91
2024-01-07T06:58:25.280Z,95876.59
2024-01-07T07:00:53.468Z,95884.16
2024-01-07T07:03:21.342Z,95883.95
2024-01-07T07:05:49.357Z,95880.33
2024-01-07T07:08:17.935Z,95879.34
2024-01-07T07:10:46.079Z,95875.94
2024-01-07T07:13:14.888Z,95880.19
2024-01-07T07:15:43.148Z,95873.21
2024-01-07T07:18:11.632Z,95871.25
2024-01-07T07:20:39.684Z,95876.87
2024-01-07T07:23:07.829Z,95871.03
2024-01-07T07:25:35.670Z,95870.42
2024-01-07T07:28:04.015Z,95860.05
2024-01-07T07:30:32.208Z,95856.32
2024-01-07T07:33:00.676Z,95854.70
2024-01-07T07:35:28.989Z,95851.46
2024-01-07T07:37:57.963Z,95850.09
2024-01-07T07:40:26.174Z,95846.11
2024-01-07T07:42:54.144Z,95850.23
2024-01-07T07:45:22.040Z,95852.14
2024-01-07T07:47:49.903Z,95848.73
2024-01-07T07:50:23.826Z,95844.93
2024-01-07T07:52:52.111Z,95845.92
2024-01-07T07:55:20.551Z,95845.34
2024-01-07T07:57:48.580Z,95838.38
2024-01-07T08:00:17.019Z,95839.71
2024-01-07T08:02:45.085Z,95836.45
2024-01-07T08:05:13.342Z,95836.72
2024-01-07T08:07:42.172Z,95829.84
2024-01-07T08:10:10.470Z,95831.29
2024-01-07T08:12:38.554Z,95827.66
2024-01-07T08:15:08.469Z,95828.42
2024-01-07T08:17:36.519Z,95837.69
2024-01-07T08:20:05.989Z,95829.14
2024-01-07T08:22:34.289Z,95825.86
2024-01-07T08:25:02.243Z,95824.37
2024-01-07T08:27:30.599Z,95823.23
2024-01-07T08:29:59.064Z,95818.41
2024-01-07T08:32:27.246Z,95821.53
2024-01-07T08:34:55.278Z,95819.45
2024-01-07T08:37:23.353Z,95823.81
2024-01-07T08:39:51.305Z,95820.17
2024-01-07T08:42:20.353Z,95816.80
2024-01-07T08:44:48.572Z,95825.80
2024-01-07T08:47:16.497Z,95825.80
2024-01-07T08:49:44.560Z,95824.31
2024-01-07T08:52:12.640Z,95821.06
2024-01-07T08:54:40.626Z,95817.70
2024-01-07T08:57:08.749Z,95818.16
2024-01-07T08:59:36.869Z,95817.33
2024-01-07T09:02:05.366Z,95810.05
2024-01-07T09:04:37.294Z,95804.15
2024-01-07T09:07:09.446Z,95803.28
2024-01-07T09:09:38.751Z,95792.89
2024-01-07T09:12:07.844Z,95792.69
2024-01-07T09:14:35.762Z,95793.64
2024-01-07T09:17:04.096Z,95788.13
2024-01-07T09:19:32.008Z,95787.61
2024-01-07T09:22:00.182Z,95785.75
2024-01-07T09:24:31.907Z,95779.82
2024-01-07T09:27:01.886Z,95777.64
2024-01-07T09:29:33.048Z,95769.89
2024-01-07T09:32:02.310Z,95768.73
2024-01-07T09:34:30.985Z,95768.84
2024-01-07T09:36:58.928Z,95761.41
2024-01-07T09:39:26.863Z,95764.48
2024-01-07T09:41:54.918Z,95761.67
2024-01-07T09:44:22.703Z,95759.52
2024-01-07T09:46:52.580Z,95759.52
2024-01-07T09:49:20.625Z,95752.62
2024-01-07T09:51:53.886Z,95751.92
2024-01-07T09:54:23.758Z,95747.53
2024-01-07T09:56:56.856Z,95748.91
2024-01-07T09:59:26.092Z,95752.78
2024-01-07T10:01:56.575Z,95741.02
2024-01-07T10:04:25.349Z,95741.66
2024-01-07T10:06:54.614Z,95731.67
2024-01-07T10:09:33.188Z,95736.34
2024-01-07T10:12:01.614Z,95730.96
2024-01-07T10:14:33.122Z,95731.17
2024-01-07T10:17:01.702Z,95726.97
2024-01-07T10:19:29.891Z,95726.99
2024-01-07T10:22:03.415Z,95729.58
2024-01-07T10:24:40.269Z,95723.58
2024-01-07T10:27:11.313Z,95726.28
2024-01-07T10:29:39.348Z,95723.14
2024-01-07T10:32:07.737Z,95719.68
2024-01-07T10:34:37.575Z,95719.05
2024-01-07T10:37:06.802Z,95710.34
2024-01-07T10:39:35.101Z,95712.81
2024-01-07T10:42:03.192Z,95708.75
2024-01-07T10:44:33.118Z,95709.16
2024-01-07T10:47:05.943Z,95707.42
2024-01-07T10:49:36.544Z,95700.66
2024-01-07T10:52:11.976Z,95706.88
2024-01-07T10:54:56.002Z,95703.38
2024-01-07T10:57:50.574Z,95699.27
2024-01-07T11:00:22.571Z,95700.66
2024-01-07T11:03:19.870Z,95690.22
2024-01-07T11:05:59.308Z,95682.88
2024-01-07T11:08:49.193Z,95684.61
2024-01-07T11:11:38.363Z,95675.21
2024-01-07T11:14:07.959Z,95678.80
2024-01-07T11:16:43.313Z,95678.30
2024-01-07T11:19:16.211Z,95687.48
2024-01-07T11:21:44.213Z,95684.09
2024-01-07T11:24:23.041Z,95680.60
2024-01-07T11:26:53.798Z,95679.83
2024-01-07T11:29:21.756Z,95682.44
2024-01-07T11:31:51.184Z,95687.73
2024-01-07T11:34:46.193Z,95688.80
2024-01-07T11:37:14.483Z,95688.53
2024-01-07T11:39:46.765Z,95686.47
2024-01-07T11:42:15.052Z,95683.74
2024-01-07T11:44:54.243Z,95679.57
2024-01-07T11:47:24.246Z,95680.25
2024-01-07T11:49:54.369Z,95676.27
2024-01-07T11:52:22.625Z,95676.79
2024-01-07T11:54:57.024Z,95672.58
2024-01-07T11:57:25.886Z,95681.59
2024-01-07T11:59:53.865Z,95679.63
2024-01-07T12:02:21.945Z,95678.70
2024-01-07T12:04:50.429Z,95682.63
2024-01-07T12:07:18.492Z,95684.64
2024-01-07T12:09:46.654Z,95682.82
2024-01-07T12:12:14.591Z,95676.68
2024-01-07T12:14:42.499Z,95677.97
2024-01-07T12:17:13.672Z,95678.31
2024-01-07T12:19:42.981Z,95675.95
2024-01-07T12:22:11.049Z,95674.75
2024-01-07T12:24:39.116Z,95676.04
2024-01-07T12:27:07.899Z,95678.67
2024-01-07T12:29:36.156Z,95679.87
2024-01-07T12:32:06.345Z,95678.67
2024-01-07T12:34:34.643Z,95681.88
2024-01-07T12:37:03.189Z,95694.46
2024-01-07T12:39:31.281Z,95677.93
2024-01-07T12:41:59.336Z,95684.75
2024-01-07T12:44:30.366Z,95680.73
2024-01-07T12:46:58.231Z,95674.50
2024-01-07T12:49:26.446Z,95680.61
2024-01-07T12:51:54.598Z,95685.06
2024-01-07T12:54:24.022Z,95683.77
2024-01-07T12:56:52.646Z,95690.99
2024-01-07T12:59:20.692Z,95687.95
2024-01-07T13:01:50.797Z,95696.09
2024-01-07T13:04:19.997Z,95692.34
2024-01-07T13:06:48.077Z,95689.80
2024-01-07T13:09:16.173Z,95686.45
2024-01-07T13:11:43.979Z,95695.46
2024-01-07T13:14:12.117Z,95696.80
2024-01-07T13:16:41.031Z,95704.05
2024-01-07T13:19:11.021Z,95706.56
2024-01-07T13:21:44.185Z,95710.16
2024-01-07T13:24:14.120Z,95718.48
2024-01-07T13:26:42.994Z,95713.09
2024-01-07T13:29:13.132Z,95708.97
2024-01-07T13:31:42.125Z,95716.07
2024-01-07T13:34:11.029Z,95720.26
2024-01-07T13:36:38.933Z,95719.97
2024-01-07T13:39:08.535Z,95729.86
2024-01-07T13:41:37.871Z,95728.92
2024-01-07T13:44:07.062Z,95726.97
2024-01-07T13:46:35.075Z,95727.92
2024-01-07T13:49:03.105Z,95726.20
2024-01-07T13:51:31.233Z,95738.95
2024-01-07T13:53:59.229Z,95730.53
2024-01-07T13:56:29.325Z,95731.41
2024-01-07T13:58:57.267Z,95734.48
2024-01-07T14:01:25.347Z,95733.42
2024-01-07T14:03:53.706Z,95742.13
2024-01-07T14:06:22.271Z,95741.48
2024-01-07T14:08:49.990Z,95749.09
2024-01-07T14:11:18.354Z,95744.91
2024-01-07T14:13:47.132Z,95752.82
2024-01-07T14:16:22.509Z,95751.13
2024-01-07T14:18:52.689Z,95756.23
2024-01-07T14:21:20.643Z,95755.59
2024-01-07T14:23:48.959Z,95756.02
2024-01-07T14:26:16.882Z,95756.47
2024-01-07T14:28:45.072Z,95764.05
2024-01-07T14:31:15.942Z,95763.48
2024-01-07T14:33:48.947Z,95763.94
2024-01-07T14:36:17.285Z,95763.94
2024-01-07T14:38:48.843Z,95769.38
2024-01-07T14:41:17.152Z,95768.70
2024-01-07T14:43:45.378Z,95770.49
2024-01-07T14:46:13.402Z,95771.26
2024-01-07T14:48:41.956Z,95783.81
2024-01-07T14:51:10.419Z,95781.47
2024-01-07T14:53:38.390Z,95780.92
2024-01-07T14:56:06.997Z,95788.91
2024-01-07T14:58:35.295Z,95787.56
2024-01-07T15:01:03.685Z,95793.33
2024-01-07T15:03:31.873Z,95797.21
2024-01-07T15:06:00.490Z,95796.66
2024-01-07T15:08:28.676Z,95805.21
2024-01-07T15:10:56.486Z,95806.86
2024-01-07T15:13:28.143Z,95806.98
2024-01-07T15:15:58.985Z,95807.97
2024-01-07T15:18:32.795Z,95815.66
2024-01-07T15:21:01.430Z,95813.65
2024-01-07T15:23:31.375Z,95812.88
2024-01-07T15:26:00.814Z,95820.19
2024-01-07T15:28:29.783Z,95821.98
2024-01-07T15:30:58.917Z,95815.78
2024-01-07T15:33:27.243Z,95820.88
2024-01-07T15:35:55.321Z,95823.11
2024-01-07T15:38:23.299Z,95827.10
2024-01-07T15:40:51.153Z,95824.63
2024-01-07T15:43:20.345Z,95828.97
2024-01-07T15:45:49.181Z,95832.84
2024-01-07T15:48:17.381Z,95832.38
2024-01-07T15:50:45.281Z,95834.70
2024-01-07T15:53:15.587Z,95837.71
2024-01-07T15:55:43.036Z,95832.23
2024-01-07T15:58:10.887Z,95827.58
2024-01-07T16:00:38.907Z,95830.00
2024-01-07T16:03:07.268Z,95830.33
2024-01-07T16:05:35.699Z,95835.11
2024-01-07T16:08:07.984Z,95834.33
2024-01-07T16:10:37.605Z,95839.20
2024-01-07T16:13:05.463Z,95841.09
2024-01-07T16:15:33.579Z,95840.96
2024-01-07T16:18:01.703Z,95846.08
2024-01-07T16:20:29.636Z,95839.72
2024-01-07T16:22:57.984Z,95849.73
2024-01-07T16:25:25.982Z,95850.55
2024-01-07T16:27:55.397Z,95850.64
2024-01-07T16:30:23.539Z,95850.77
2024-01-07T16:32:51.754Z,95854.84
2024-01-07T16:35:20.151Z,95859.58
2024-01-07T16:37:47.992Z,95866.91
2024-01-07T16:40:18.295Z,95861.45
2024-01-07T16:42:48.000Z,95869.75
2024-01-07T16:45:16.041Z,95868.20
2024-01-07T16:47:43.995Z,95874.63
2024-01-07T16:50:21.761Z,95873.83
2024-01-07T16:52:42.916Z,95876.05
2024-01-07T16:55:11.622Z,95871.03
2024-01-07T16:57:39.823Z,95869.81
2024-01-07T17:00:10.651Z,95874.03
2024-01-07T17:02:38.758Z,95872.23
2024-01-07T17:05:09.705Z,95871.92
2024-01-07T17:07:40.680Z,95870.68
2024-01-07T17:10:09.687Z,95873.89
2024-01-07T17:12:37.512Z,95868.66
2024-01-07T17:15:05.993Z,95873.29
2024-01-07T17:17:34.025Z,95880.28
2024-01-07T17:20:01.996Z,95875.05
2024-01-07T17:22:30.060Z,95882.89
2024-01-07T17:24:58.157Z,95881.42
2024-01-07T17:27:26.056Z,95887.39
2024-01-07T17:29:54.128Z,95881.06
2024-01-07T17:32:23.206Z,95884.03
2024-01-07T17:34:54.454Z,95881.70
2024-01-07T17:37:24.662Z,95885.48
2024-01-07T17:39:52.940Z,95893.69
2024-01-07T17:42:23.170Z,95895.71
2024-01-07T17:44:52.914Z,95890.05
2024-01-07T17:47:23.184Z,95891.38
2024-01-07T17:49:52.432Z,95899.15
2024-01-07T17:52:20.724Z,95899.37
2024-01-07T17:54:56.192Z,95901.48
2024-01-07T17:57:24.893Z,95903.61
2024-01-07T17:59:52.927Z,95907.36
2024-01-07T18:02:21.282Z,95905.25
2024-01-07T18:04:50.915Z,95914.42
2024-01-07T18:07:19.744Z,95917.95
2024-01-07T18:09:47.977Z,95913.73
2024-01-07T18:12:17.292Z,95918.75
2024-01-07T18:14:45.624Z,95921.94
2024-01-07T18:17:13.856Z,95920.22
2024-01-07T18:19:42.387Z,95924.66
2024-01-07T18:22:13.634Z,95928.10
2024-01-07T18:24:42.346Z,95930.32
2024-01-07T18:27:10.396Z,95928.10
2024-01-07T18:29:39.377Z,95928.02
2024-01-07T18:32:08.485Z,95932.48
2024-01-07T18:34:36.916Z,95934.59
2024-01-07T18:37:05.106Z,95936.15
2024-01-07T18:39:33.084Z,95933.81
2024-01-07T18:42:01.653Z,95939.92
2024-01-07T18:44:29.756Z,95943.99
2024-01-07T18:46:58.074Z,95946.73
2024-01-07T18:49:26.263Z,95944.96
2024-01-07T18:51:54.543Z,95954.28
2024-01-07T18:54:22.620Z,95953.95
2024-01-07T18:56:50.772Z,95960.86
2024-01-07T18:59:19.887Z,95960.52
2024-01-07T19:01:58.647Z,95958.86
2024-01-07T19:04:43.874Z,95964.44
2024-01-07T19:07:14.116Z,95962.63
2024-01-07T19:09:42.028Z,95959.52
2024-01-07T19:12:11.879Z,95963.82
2024-01-07T19:14:42.636Z,95969.55
2024-01-07T19:17:10.745Z,95970.66
2024-01-07T19:19:39.261Z,95974.73
2024-01-07T19:22:11.676Z,95967.05
2024-01-07T19:24:39.618Z,95960.95
2024-01-07T19:27:09.542Z,95970.38
2024-01-07T19:29:41.476Z,95967.23
2024-01-07T19:32:09.743Z,95972.56
2024-01-07T19:34:40.066Z,95975.78
2024-01-07T19:37:14.866Z,95975.00
2024-01-07T19:39:43.194Z,95980.55
2024-01-07T19:42:13.209Z,95977.33
2024-01-07T19:44:45.690Z,95983.44
2024-01-07T19:47:13.880Z,95992.75
2024-01-07T19:49:41.833Z,95988.20
2024-01-07T19:52:09.853Z,95996.19
2024-01-07T19:54:39.859Z,95995.74
2024-01-07T19:57:08.066Z,95997.92
2024-01-07T19:59:39.177Z,95994.27
2024-01-07T20:02:07.723Z,95994.34
2024-01-07T20:04:35.822Z,96010.02
2024-01-07T20:07:05.107Z,96015.26
2024-01-07T20:09:33.192Z,96009.09
2024-01-07T20:12:01.805Z,96009.04
2024-01-07T20:14:31.620Z,96012.72
2024-01-07T20:16:59.660Z,96001.84
2024-01-07T20:19:27.707Z,96005.69
2024-01-07T20:21:55.793Z,96010.08
2024-01-07T20:24:24.384Z,96028.38
2024-01-07T20:26:52.423Z,96019.98
2024-01-07T20:29:22.387Z,96026.80
2024-01-07T20:31:50.576Z,96028.13
2024-01-07T20:34:20.410Z,96032.34
2024-01-07T20:36:51.776Z,96029.20
2024-01-07T20:39:21.271Z,96041.72
2024-01-07T20:41:50.195Z,96036.73
2024-01-07T20:44:18.344Z,96037.58
2024-01-07T20:46:46.308Z,96039.75
2024-01-07T20:49:14.564Z,96045.84
2024-01-07T20:51:42.635Z,96041.86
2024-01-07T20:54:10.696Z,96052.26
2024-01-07T20:56:42.629Z,96050.99
2024-01-07T20:59:08.871Z,96054.27
2024-01-07T21:01:37.266Z,96049.73
2024-01-07T21:04:06.981Z,96054.59
2024-01-07T21:06:35.112Z,96062.39
2024-01-07T21:09:03.332Z,96055.27
2024-01-07T21:11:31.481Z,96052.67
2024-01-07T21:13:59.678Z,96054.32
2024-01-07T21:16:27.648Z,96060.73
2024-01-07T21:18:55.848Z,96061.80
2024-01-07T21:21:25.971Z,96069.32
2024-01-07T21:23:54.183Z,96065.11
2024-01-07T21:26:24.493Z,96070.16
2024-01-07T21:28:52.535Z,96071.09
2024-01-07T21:31:21.108Z,96060.70
2024-01-07T21:33:50.518Z,96065.55
2024-01-07T21:36:18.580Z,96065.61
2024-01-07T21:38:48.212Z,96081.61
2024-01-07T21:41:16.136Z,96071.86
2024-01-07T21:43:44.916Z,96071.05
2024-01-07T21:46:19.347Z,96072.14
2024-01-07T21:48:48.798Z,96069.55
2024-01-07T21:51:19.130Z,96070.64
2024-01-07T21:53:47.099Z,96069.64
2024-01-07T21:56:15.076Z,96080.55
2024-01-07T21:58:44.404Z,96074.23
2024-01-07T22:01:14.248Z,96068.92
2024-01-07T22:03:42.214Z,96081.42
2024-01-07T22:06:11.974Z,96077.81
2024-01-07T22:08:41.335Z,96082.86
2024-01-07T22:11:15.899Z,96079.66
2024-01-07T22:13:45.761Z,96077.64
2024-01-07T22:16:14.382Z,96082.69
2024-01-07T22:18:43.051Z,96086.94
2024-01-07T22:21:20.054Z,96096.75
2024-01-07T22:23:49.900Z,96094.90
2024-01-07T22:26:24.934Z,96108.41
2024-01-07T22:28:52.761Z,96101.28
2024-01-07T22:31:23.035Z,96113.48
2024-01-07T22:33:51.098Z,96111.13
2024-01-07T22:36:19.431Z,96115.66
2024-01-07T22:38:47.442Z,96117.53
2024-01-07T22:41:15.398Z,96116.20
2024-01-07T22:44:03.857Z,96114.33
2024-01-07T22:46:32.736Z,96116.20
2024-01-07T22:49:00.804Z,96120.56
2024-01-07T22:51:30.553Z,96120.06
2024-01-07T22:53:58.428Z,96121.71
2024-01-07T22:56:28.520Z,96126.53
2024-01-07T22:58:56.647Z,96128.45
2024-01-07T23:01:32.759Z,96121.27
2024-01-07T23:04:00.942Z,96126.95
2024-01-07T23:06:28.997Z,96124.53
2024-01-07T23:08:57.201Z,96134.92
2024-01-07T23:11:27.046Z,96136.80
2024-01-07T23:13:55.431Z,96143.25
2024-01-07T23:16:23.421Z,96137.16
2024-01-07T23:18:51.436Z,96147.83
2024-01-07T23:21:20.708Z,96143.62
2024-01-07T23:23:48.665Z,96152.91
2024-01-07T23:26:16.801Z,96148.93
2024-01-07T23:28:45.274Z,96153.38
2024-01-07T23:31:13.828Z,96151.53
2024-01-07T23:33:43.048Z,96159.49
2024-01-07T23:36:11.766Z,96162.15
2024-01-07T23:38:39.822Z,96166.64
2024-01-07T23:41:07.704Z,96163.48
2024-01-07T23:43:35.863Z,96162.61
2024-01-07T23:46:06.255Z,96163.11
2024-01-07T23:48:37.106Z,96175.28
2024-01-07T23:51:05.660Z,96177.45
2024-01-07T23:53:33.642Z,96184.03
2024-01-07T23:56:01.753Z,96183.30
2024-01-07T23:58:30.112Z,96178.25
